sensor_id;sensor_type;location;lat;lon;timestamp;temperature;humidity
35804;DHT22;21924;51.934;7.414;2023-01-01T00:01:43;15.20;99.90
35804;DHT22;21924;51.934;7.414;2023-01-01T00:04:28;15.10;99.90
35804;DHT22;21924;51.934;7.414;2023-01-01T00:07:12;15.10;99.90
35804;DHT22;21924;51.934;7.414;2023-01-01T00:09:56;15.20;99.90
35804;DHT22;21924;51.934;7.414;2023-01-01T00:12:59;15.30;99.90
35804;DHT22;21924;51.934;7.414;2023-01-01T00:15:44;15.30;99.90
35804;DHT22;21924;51.934;7.414;2023-01-01T00:18:28;15.20;99.90
35804;DHT22;21924;51.934;7.414;2023-01-01T00:21:13;15.20;99.90
35804;DHT22;21924;51.934;7.414;2023-01-01T00:23:57;15.20;99.90
35804;DHT22;21924;51.934;7.414;2023-01-01T00:26:41;15.30;99.90
35804;DHT22;21924;51.934;7.414;2023-01-01T00:29:25;15.30;99.90
35804;DHT22;21924;51.934;7.414;2023-01-01T00:32:10;15.30;99.90
35804;DHT22;21924;51.934;7.414;2023-01-01T00:34:55;15.20;99.90
35804;DHT22;21924;51.934;7.414;2023-01-01T00:37:39;15.10;99.90
35804;DHT22;21924;51.934;7.414;2023-01-01T00:40:24;15.20;99.90
35804;DHT22;21924;51.934;7.414;2023-01-01T00:43:08;15.20;99.90
35804;DHT22;21924;51.934;7.414;2023-01-01T00:45:52;15.10;99.90
35804;DHT22;21924;51.934;7.414;2023-01-01T00:48:37;15.10;99.90
35804;DHT22;21924;51.934;7.414;2023-01-01T00:51:21;15.20;99.90
35804;DHT22;21924;51.934;7.414;2023-01-01T00:54:05;15.20;99.90
35804;DHT22;21924;51.934;7.414;2023-01-01T00:56:49;15.20;99.90
35804;DHT22;21924;51.934;7.414;2023-01-01T00:59:34;15.10;99.90
35804;DHT22;21924;51.934;7.414;2023-01-01T01:02:18;15.20;99.90
35804;DHT22;21924;51.934;7.414;2023-01-01T01:05:02;15.10;99.90
35804;DHT22;21924;51.934;7.414;2023-01-01T01:07:47;15.10;99.90
35804;DHT22;21924;51.934;7.414;2023-01-01T01:10:32;15.00;99.90
35804;DHT22;21924;51.934;7.414;2023-01-01T01:13:16;15.00;99.90
35804;DHT22;21924;51.934;7.414;2023-01-01T01:16:00;14.90;99.90
35804;DHT22;21924;51.934;7.414;2023-01-01T01:18:45;14.90;99.90
35804;DHT22;21924;51.934;7.414;2023-01-01T01:21:31;14.90;99.90
35804;DHT22;21924;51.934;7.414;2023-01-01T01:24:15;15.00;99.90
35804;DHT22;21924;51.934;7.414;2023-01-01T01:27:00;15.10;99.90
35804;DHT22;21924;51.934;7.414;2023-01-01T01:29:44;15.00;99.90
35804;DHT22;21924;51.934;7.414;2023-01-01T01:32:28;14.90;99.90
35804;DHT22;21924;51.934;7.414;2023-01-01T01:35:12;14.90;99.90
35804;DHT22;21924;51.934;7.414;2023-01-01T01:37:57;14.90;99.90
35804;DHT22;21924;51.934;7.414;2023-01-01T01:40:42;14.90;99.90
35804;DHT22;21924;51.934;7.414;2023-01-01T01:46:25;14.90;99.90
35804;DHT22;21924;51.934;7.414;2023-01-01T01:49:16;14.90;99.90
35804;DHT22;21924;51.934;7.414;2023-01-01T01:52:01;14.90;99.90
35804;DHT22;21924;51.934;7.414;2023-01-01T01:54:46;14.90;99.90
35804;DHT22;21924;51.934;7.414;2023-01-01T01:57:31;14.90;99.90
35804;DHT22;21924;51.934;7.414;2023-01-01T02:00:15;14.90;99.90
35804;DHT22;21924;51.934;7.414;2023-01-01T02:03:13;14.80;99.90
35804;DHT22;21924;51.934;7.414;2023-01-01T02:06:00;14.70;99.90
35804;DHT22;21924;51.934;7.414;2023-01-01T02:08:45;14.70;99.90
35804;DHT22;21924;51.934;7.414;2023-01-01T02:11:30;14.70;99.90
35804;DHT22;21924;51.934;7.414;2023-01-01T02:14:14;14.80;99.90
35804;DHT22;21924;51.934;7.414;2023-01-01T02:17:21;14.90;99.90
35804;DHT22;21924;51.934;7.414;2023-01-01T02:26:59;14.80;99.90
35804;DHT22;21924;51.934;7.414;2023-01-01T02:29:55;14.80;99.90
35804;DHT22;21924;51.934;7.414;2023-01-01T02:33:00;14.90;99.90
35804;DHT22;21924;51.934;7.414;2023-01-01T02:35:58;14.80;99.90
35804;DHT22;21924;51.934;7.414;2023-01-01T02:38:50;14.80;99.90
35804;DHT22;21924;51.934;7.414;2023-01-01T02:41:39;14.70;99.90
35804;DHT22;21924;51.934;7.414;2023-01-01T02:44:27;14.70;99.90
35804;DHT22;21924;51.934;7.414;2023-01-01T02:47:16;14.80;99.90
35804;DHT22;21924;51.934;7.414;2023-01-01T02:50:21;14.80;99.90
35804;DHT22;21924;51.934;7.414;2023-01-01T02:53:31;14.80;99.90
35804;DHT22;21924;51.934;7.414;2023-01-01T02:59:33;14.70;99.90
35804;DHT22;21924;51.934;7.414;2023-01-01T03:05:37;14.70;99.90
35804;DHT22;21924;51.934;7.414;2023-01-01T03:11:58;14.50;99.90
35804;DHT22;21924;51.934;7.414;2023-01-01T03:14:57;14.60;99.90
35804;DHT22;21924;51.934;7.414;2023-01-01T03:17:52;14.60;99.90
35804;DHT22;21924;51.934;7.414;2023-01-01T03:20:41;14.60;99.90
35804;DHT22;21924;51.934;7.414;2023-01-01T03:23:41;14.60;99.90
35804;DHT22;21924;51.934;7.414;2023-01-01T03:26:29;14.50;99.90
35804;DHT22;21924;51.934;7.414;2023-01-01T03:29:15;14.40;99.90
35804;DHT22;21924;51.934;7.414;2023-01-01T03:32:02;14.40;99.90
35804;DHT22;21924;51.934;7.414;2023-01-01T03:34:52;14.30;99.90
35804;DHT22;21924;51.934;7.414;2023-01-01T03:37:38;14.30;99.90
35804;DHT22;21924;51.934;7.414;2023-01-01T03:40:25;14.30;99.90
35804;DHT22;21924;51.934;7.414;2023-01-01T03:43:37;14.30;99.90
35804;DHT22;21924;51.934;7.414;2023-01-01T03:46:25;14.30;99.90
35804;DHT22;21924;51.934;7.414;2023-01-01T03:49:12;14.30;99.90
35804;DHT22;21924;51.934;7.414;2023-01-01T04:00:46;14.40;99.90
35804;DHT22;21924;51.934;7.414;2023-01-01T04:03:34;14.40;99.90
35804;DHT22;21924;51.934;7.414;2023-01-01T04:06:19;14.40;99.90
35804;DHT22;21924;51.934;7.414;2023-01-01T04:09:03;14.50;99.90
35804;DHT22;21924;51.934;7.414;2023-01-01T04:11:52;14.50;99.90
35804;DHT22;21924;51.934;7.414;2023-01-01T04:14:50;14.50;99.90
35804;DHT22;21924;51.934;7.414;2023-01-01T04:17:34;14.40;99.90
35804;DHT22;21924;51.934;7.414;2023-01-01T04:20:19;14.50;99.90
35804;DHT22;21924;51.934;7.414;2023-01-01T04:23:03;14.40;99.90
35804;DHT22;21924;51.934;7.414;2023-01-01T04:25:47;14.40;99.90
35804;DHT22;21924;51.934;7.414;2023-01-01T04:28:32;14.40;99.90
35804;DHT22;21924;51.934;7.414;2023-01-01T04:31:16;14.40;99.90
35804;DHT22;21924;51.934;7.414;2023-01-01T04:34:00;14.40;99.90
35804;DHT22;21924;51.934;7.414;2023-01-01T04:36:44;14.40;99.90
35804;DHT22;21924;51.934;7.414;2023-01-01T04:39:29;14.30;99.90
35804;DHT22;21924;51.934;7.414;2023-01-01T04:42:13;14.40;99.90
35804;DHT22;21924;51.934;7.414;2023-01-01T04:44:58;14.30;99.90
35804;DHT22;21924;51.934;7.414;2023-01-01T04:47:42;14.30;99.90
35804;DHT22;21924;51.934;7.414;2023-01-01T04:50:26;14.20;99.90
35804;DHT22;21924;51.934;7.414;2023-01-01T04:53:10;14.20;99.90
35804;DHT22;21924;51.934;7.414;2023-01-01T04:55:55;14.20;99.90
35804;DHT22;21924;51.934;7.414;2023-01-01T04:58:41;14.10;99.90
35804;DHT22;21924;51.934;7.414;2023-01-01T05:01:27;14.10;99.90
35804;DHT22;21924;51.934;7.414;2023-01-01T05:04:13;14.20;99.90
35804;DHT22;21924;51.934;7.414;2023-01-01T05:06:57;14.10;99.90
35804;DHT22;21924;51.934;7.414;2023-01-01T05:09:41;14.10;99.90
35804;DHT22;21924;51.934;7.414;2023-01-01T05:12:25;14.20;99.90
35804;DHT22;21924;51.934;7.414;2023-01-01T05:15:12;14.10;99.90
35804;DHT22;21924;51.934;7.414;2023-01-01T05:17:56;14.10;99.90
35804;DHT22;21924;51.934;7.414;2023-01-01T05:20:41;14.10;99.90
35804;DHT22;21924;51.934;7.414;2023-01-01T05:23:25;14.10;99.90
35804;DHT22;21924;51.934;7.414;2023-01-01T05:26:16;14.10;99.90
35804;DHT22;21924;51.934;7.414;2023-01-01T05:29:02;14.10;99.90
35804;DHT22;21924;51.934;7.414;2023-01-01T05:31:46;14.10;99.90
35804;DHT22;21924;51.934;7.414;2023-01-01T05:34:31;14.00;99.90
35804;DHT22;21924;51.934;7.414;2023-01-01T05:37:15;13.90;99.90
35804;DHT22;21924;51.934;7.414;2023-01-01T05:39:59;13.90;99.90
35804;DHT22;21924;51.934;7.414;2023-01-01T05:42:46;13.90;99.90
35804;DHT22;21924;51.934;7.414;2023-01-01T05:45:30;13.90;99.90
35804;DHT22;21924;51.934;7.414;2023-01-01T05:48:14;13.90;99.90
35804;DHT22;21924;51.934;7.414;2023-01-01T05:51:07;13.90;99.90
35804;DHT22;21924;51.934;7.414;2023-01-01T05:53:55;13.90;99.90
35804;DHT22;21924;51.934;7.414;2023-01-01T05:56:39;13.80;99.90
35804;DHT22;21924;51.934;7.414;2023-01-01T05:59:24;13.80;99.90
35804;DHT22;21924;51.934;7.414;2023-01-01T06:02:08;13.70;99.90
35804;DHT22;21924;51.934;7.414;2023-01-01T06:04:52;13.70;99.90
35804;DHT22;21924;51.934;7.414;2023-01-01T06:07:36;13.70;99.90
35804;DHT22;21924;51.934;7.414;2023-01-01T06:10:21;13.80;99.90
35804;DHT22;21924;51.934;7.414;2023-01-01T06:13:05;13.80;99.90
35804;DHT22;21924;51.934;7.414;2023-01-01T06:15:54;13.70;99.90
35804;DHT22;21924;51.934;7.414;2023-01-01T06:18:38;13.60;99.90
35804;DHT22;21924;51.934;7.414;2023-01-01T06:21:24;13.50;99.90
35804;DHT22;21924;51.934;7.414;2023-01-01T06:24:09;13.50;99.90
35804;DHT22;21924;51.934;7.414;2023-01-01T06:26:53;13.60;99.90
35804;DHT22;21924;51.934;7.414;2023-01-01T06:29:37;13.70;99.90
35804;DHT22;21924;51.934;7.414;2023-01-01T06:32:22;13.70;99.90
35804;DHT22;21924;51.934;7.414;2023-01-01T06:35:06;13.70;99.90
35804;DHT22;21924;51.934;7.414;2023-01-01T06:37:51;13.80;99.90
35804;DHT22;21924;51.934;7.414;2023-01-01T06:40:35;13.70;99.90
35804;DHT22;21924;51.934;7.414;2023-01-01T06:43:19;13.70;99.90
35804;DHT22;21924;51.934;7.414;2023-01-01T06:46:20;13.70;99.90
35804;DHT22;21924;51.934;7.414;2023-01-01T06:49:08;13.70;99.90
35804;DHT22;21924;51.934;7.414;2023-01-01T06:51:52;13.70;99.90
35804;DHT22;21924;51.934;7.414;2023-01-01T06:54:37;13.80;99.90
35804;DHT22;21924;51.934;7.414;2023-01-01T06:57:22;13.80;99.90
35804;DHT22;21924;51.934;7.414;2023-01-01T07:00:07;13.80;99.90
35804;DHT22;21924;51.934;7.414;2023-01-01T07:02:51;13.80;99.90
35804;DHT22;21924;51.934;7.414;2023-01-01T07:05:36;13.80;99.90
35804;DHT22;21924;51.934;7.414;2023-01-01T07:08:20;13.80;99.90
35804;DHT22;21924;51.934;7.414;2023-01-01T07:11:04;13.90;99.90
35804;DHT22;21924;51.934;7.414;2023-01-01T07:13:48;13.90;99.90
35804;DHT22;21924;51.934;7.414;2023-01-01T07:16:33;13.90;99.90
35804;DHT22;21924;51.934;7.414;2023-01-01T07:19:17;14.00;99.90
35804;DHT22;21924;51.934;7.414;2023-01-01T07:22:01;14.00;99.90
35804;DHT22;21924;51.934;7.414;2023-01-01T07:24:46;14.00;99.90
35804;DHT22;21924;51.934;7.414;2023-01-01T07:27:31;13.90;99.90
35804;DHT22;21924;51.934;7.414;2023-01-01T07:30:15;13.90;99.90
35804;DHT22;21924;51.934;7.414;2023-01-01T07:32:59;13.90;99.90
35804;DHT22;21924;51.934;7.414;2023-01-01T07:35:44;13.90;99.90
35804;DHT22;21924;51.934;7.414;2023-01-01T07:38:29;13.80;99.90
35804;DHT22;21924;51.934;7.414;2023-01-01T07:41:13;13.60;99.90
35804;DHT22;21924;51.934;7.414;2023-01-01T07:43:57;13.30;99.90
35804;DHT22;21924;51.934;7.414;2023-01-01T07:46:41;13.30;99.90
35804;DHT22;21924;51.934;7.414;2023-01-01T07:49:26;13.20;99.90
35804;DHT22;21924;51.934;7.414;2023-01-01T07:52:10;13.10;99.90
35804;DHT22;21924;51.934;7.414;2023-01-01T07:54:54;13.00;99.90
35804;DHT22;21924;51.934;7.414;2023-01-01T07:57:40;13.00;99.90
35804;DHT22;21924;51.934;7.414;2023-01-01T08:00:24;13.00;99.90
35804;DHT22;21924;51.934;7.414;2023-01-01T08:03:08;12.80;99.90
35804;DHT22;21924;51.934;7.414;2023-01-01T08:05:52;12.70;99.90
35804;DHT22;21924;51.934;7.414;2023-01-01T08:08:37;12.60;99.90
35804;DHT22;21924;51.934;7.414;2023-01-01T08:11:22;12.50;99.90
35804;DHT22;21924;51.934;7.414;2023-01-01T08:14:06;12.40;99.90
35804;DHT22;21924;51.934;7.414;2023-01-01T08:16:50;12.30;99.90
35804;DHT22;21924;51.934;7.414;2023-01-01T08:19:34;12.20;99.90
35804;DHT22;21924;51.934;7.414;2023-01-01T08:22:19;12.20;99.90
35804;DHT22;21924;51.934;7.414;2023-01-01T08:25:03;12.10;99.90
35804;DHT22;21924;51.934;7.414;2023-01-01T08:27:47;12.00;99.90
35804;DHT22;21924;51.934;7.414;2023-01-01T08:30:32;11.90;99.90
35804;DHT22;21924;51.934;7.414;2023-01-01T08:33:16;12.00;99.90
35804;DHT22;21924;51.934;7.414;2023-01-01T08:36:01;12.00;99.90
35804;DHT22;21924;51.934;7.414;2023-01-01T08:38:46;12.00;99.90
35804;DHT22;21924;51.934;7.414;2023-01-01T08:41:30;11.80;99.90
35804;DHT22;21924;51.934;7.414;2023-01-01T08:44:14;11.90;99.90
35804;DHT22;21924;51.934;7.414;2023-01-01T08:46:59;11.80;99.90
35804;DHT22;21924;51.934;7.414;2023-01-01T08:49:43;11.80;99.90
35804;DHT22;21924;51.934;7.414;2023-01-01T08:52:27;11.80;99.90
35804;DHT22;21924;51.934;7.414;2023-01-01T08:55:12;11.70;99.90
35804;DHT22;21924;51.934;7.414;2023-01-01T08:57:56;11.70;99.90
35804;DHT22;21924;51.934;7.414;2023-01-01T09:00:40;11.60;99.90
35804;DHT22;21924;51.934;7.414;2023-01-01T09:03:25;11.60;99.90
35804;DHT22;21924;51.934;7.414;2023-01-01T09:06:09;11.60;99.90
35804;DHT22;21924;51.934;7.414;2023-01-01T09:08:53;11.60;99.90
35804;DHT22;21924;51.934;7.414;2023-01-01T09:11:38;11.60;99.90
35804;DHT22;21924;51.934;7.414;2023-01-01T09:14:22;11.60;99.90
35804;DHT22;21924;51.934;7.414;2023-01-01T09:17:06;11.50;99.90
35804;DHT22;21924;51.934;7.414;2023-01-01T09:19:51;11.50;99.90
35804;DHT22;21924;51.934;7.414;2023-01-01T09:22:35;11.50;99.90
35804;DHT22;21924;51.934;7.414;2023-01-01T09:25:19;11.40;99.90
35804;DHT22;21924;51.934;7.414;2023-01-01T09:28:06;11.40;99.90
35804;DHT22;21924;51.934;7.414;2023-01-01T09:30:50;11.40;99.90
35804;DHT22;21924;51.934;7.414;2023-01-01T09:33:35;11.50;99.90
35804;DHT22;21924;51.934;7.414;2023-01-01T09:39:03;11.40;99.90
35804;DHT22;21924;51.934;7.414;2023-01-01T09:41:56;11.40;99.90
35804;DHT22;21924;51.934;7.414;2023-01-01T09:47:36;11.30;99.90
35804;DHT22;21924;51.934;7.414;2023-01-01T09:50:24;11.30;99.90
35804;DHT22;21924;51.934;7.414;2023-01-01T09:53:19;11.40;99.90
35804;DHT22;21924;51.934;7.414;2023-01-01T09:56:05;11.30;99.90
35804;DHT22;21924;51.934;7.414;2023-01-01T09:58:49;11.30;99.90
35804;DHT22;21924;51.934;7.414;2023-01-01T10:01:45;11.30;99.90
35804;DHT22;21924;51.934;7.414;2023-01-01T10:07:48;11.20;99.90
35804;DHT22;21924;51.934;7.414;2023-01-01T10:10:44;11.20;99.90
35804;DHT22;21924;51.934;7.414;2023-01-01T10:13:44;11.20;99.90
35804;DHT22;21924;51.934;7.414;2023-01-01T10:16:30;11.30;99.90
35804;DHT22;21924;51.934;7.414;2023-01-01T10:19:29;11.20;99.90
35804;DHT22;21924;51.934;7.414;2023-01-01T10:22:37;11.20;99.90
35804;DHT22;21924;51.934;7.414;2023-01-01T10:25:32;11.20;99.90
35804;DHT22;21924;51.934;7.414;2023-01-01T10:28:28;11.20;99.90
35804;DHT22;21924;51.934;7.414;2023-01-01T10:34:24;11.20;99.90
35804;DHT22;21924;51.934;7.414;2023-01-01T10:37:09;11.20;99.90
35804;DHT22;21924;51.934;7.414;2023-01-01T10:39:54;11.10;99.90
35804;DHT22;21924;51.934;7.414;2023-01-01T10:42:39;11.20;99.90
35804;DHT22;21924;51.934;7.414;2023-01-01T10:45:34;11.20;99.90
35804;DHT22;21924;51.934;7.414;2023-01-01T10:48:21;11.20;99.90
35804;DHT22;21924;51.934;7.414;2023-01-01T10:51:05;11.30;99.90
35804;DHT22;21924;51.934;7.414;2023-01-01T10:53:51;11.30;99.90
35804;DHT22;21924;51.934;7.414;2023-01-01T10:56:39;11.40;99.90
35804;DHT22;21924;51.934;7.414;2023-01-01T10:59:39;11.50;99.90
35804;DHT22;21924;51.934;7.414;2023-01-01T11:02:26;11.60;99.90
35804;DHT22;21924;51.934;7.414;2023-01-01T11:05:15;11.70;99.90
35804;DHT22;21924;51.934;7.414;2023-01-01T11:07:59;11.80;99.90
35804;DHT22;21924;51.934;7.414;2023-01-01T11:10:49;11.90;99.90
35804;DHT22;21924;51.934;7.414;2023-01-01T11:13:35;11.90;99.90
35804;DHT22;21924;51.934;7.414;2023-01-01T11:16:19;11.90;99.90
35804;DHT22;21924;51.934;7.414;2023-01-01T11:19:06;11.90;99.90
35804;DHT22;21924;51.934;7.414;2023-01-01T11:21:51;11.80;99.90
35804;DHT22;21924;51.934;7.414;2023-01-01T11:24:37;11.80;99.90
35804;DHT22;21924;51.934;7.414;2023-01-01T11:27:23;11.80;99.90
35804;DHT22;21924;51.934;7.414;2023-01-01T11:30:24;11.90;99.90
35804;DHT22;21924;51.934;7.414;2023-01-01T11:33:14;11.90;99.90
35804;DHT22;21924;51.934;7.414;2023-01-01T11:36:01;11.90;99.90
35804;DHT22;21924;51.934;7.414;2023-01-01T11:38:51;11.90;99.90
35804;DHT22;21924;51.934;7.414;2023-01-01T11:41:49;12.00;99.90
35804;DHT22;21924;51.934;7.414;2023-01-01T11:44:47;12.00;99.90
35804;DHT22;21924;51.934;7.414;2023-01-01T11:47:35;12.10;99.90
35804;DHT22;21924;51.934;7.414;2023-01-01T11:50:31;12.20;99.90
35804;DHT22;21924;51.934;7.414;2023-01-01T11:53:25;12.20;99.90
35804;DHT22;21924;51.934;7.414;2023-01-01T11:56:14;12.20;99.90
35804;DHT22;21924;51.934;7.414;2023-01-01T11:59:13;12.30;99.90
35804;DHT22;21924;51.934;7.414;2023-01-01T12:02:02;12.20;99.90
35804;DHT22;21924;51.934;7.414;2023-01-01T12:04:52;12.30;99.90
35804;DHT22;21924;51.934;7.414;2023-01-01T12:07:38;12.40;99.90
35804;DHT22;21924;51.934;7.414;2023-01-01T12:10:30;12.60;99.90
35804;DHT22;21924;51.934;7.414;2023-01-01T12:13:21;12.70;99.90
35804;DHT22;21924;51.934;7.414;2023-01-01T12:16:15;12.80;99.90
35804;DHT22;21924;51.934;7.414;2023-01-01T12:19:35;12.80;99.90
35804;DHT22;21924;51.934;7.414;2023-01-01T12:22:18;12.90;99.90
35804;DHT22;21924;51.934;7.414;2023-01-01T12:25:03;13.00;99.90
35804;DHT22;21924;51.934;7.414;2023-01-01T12:31:46;13.00;99.90
35804;DHT22;21924;51.934;7.414;2023-01-01T12:43:51;12.90;99.90
35804;DHT22;21924;51.934;7.414;2023-01-01T12:46:56;12.90;99.90
35804;DHT22;21924;51.934;7.414;2023-01-01T12:53:19;12.80;99.90
35804;DHT22;21924;51.934;7.414;2023-01-01T12:59:05;12.80;99.90
35804;DHT22;21924;51.934;7.414;2023-01-01T13:01:54;12.80;99.90
35804;DHT22;21924;51.934;7.414;2023-01-01T13:04:40;12.80;99.90
35804;DHT22;21924;51.934;7.414;2023-01-01T13:07:34;12.80;99.90
35804;DHT22;21924;51.934;7.414;2023-01-01T13:10:24;12.70;99.90
35804;DHT22;21924;51.934;7.414;2023-01-01T13:13:11;12.70;99.90
35804;DHT22;21924;51.934;7.414;2023-01-01T13:15:56;12.60;99.90
35804;DHT22;21924;51.934;7.414;2023-01-01T13:18:40;12.60;99.90
35804;DHT22;21924;51.934;7.414;2023-01-01T13:21:25;12.70;99.90
35804;DHT22;21924;51.934;7.414;2023-01-01T13:24:20;12.70;99.90
35804;DHT22;21924;51.934;7.414;2023-01-01T13:27:07;12.70;99.90
35804;DHT22;21924;51.934;7.414;2023-01-01T13:29:52;12.70;99.90
35804;DHT22;21924;51.934;7.414;2023-01-01T13:39:02;12.40;99.90
35804;DHT22;21924;51.934;7.414;2023-01-01T13:41:46;12.40;99.90
35804;DHT22;21924;51.934;7.414;2023-01-01T13:44:31;12.30;99.90
35804;DHT22;21924;51.934;7.414;2023-01-01T13:47:38;12.40;99.90
35804;DHT22;21924;51.934;7.414;2023-01-01T13:50:38;12.40;99.90
35804;DHT22;21924;51.934;7.414;2023-01-01T13:59:52;12.40;99.90
35804;DHT22;21924;51.934;7.414;2023-01-01T14:02:43;12.50;99.90
35804;DHT22;21924;51.934;7.414;2023-01-01T14:05:35;12.40;99.90
35804;DHT22;21924;51.934;7.414;2023-01-01T14:08:32;12.40;99.90
35804;DHT22;21924;51.934;7.414;2023-01-01T14:18:43;12.30;99.90
35804;DHT22;21924;51.934;7.414;2023-01-01T14:25:23;12.20;99.90
35804;DHT22;21924;51.934;7.414;2023-01-01T14:28:19;12.20;99.90
35804;DHT22;21924;51.934;7.414;2023-01-01T14:31:09;12.20;99.90
35804;DHT22;21924;51.934;7.414;2023-01-01T14:33:54;12.10;99.90
35804;DHT22;21924;51.934;7.414;2023-01-01T14:36:58;12.00;99.90
35804;DHT22;21924;51.934;7.414;2023-01-01T14:39:43;12.00;99.90
35804;DHT22;21924;51.934;7.414;2023-01-01T14:42:27;11.90;99.90
35804;DHT22;21924;51.934;7.414;2023-01-01T14:45:16;11.90;99.90
35804;DHT22;21924;51.934;7.414;2023-01-01T14:48:02;11.80;99.90
35804;DHT22;21924;51.934;7.414;2023-01-01T14:50:50;11.90;99.90
35804;DHT22;21924;51.934;7.414;2023-01-01T14:53:34;11.80;99.90
35804;DHT22;21924;51.934;7.414;2023-01-01T14:56:33;11.80;99.90
35804;DHT22;21924;51.934;7.414;2023-01-01T14:59:31;11.80;99.90
35804;DHT22;21924;51.934;7.414;2023-01-01T15:02:20;11.80;99.90
35804;DHT22;21924;51.934;7.414;2023-01-01T15:05:26;11.80;99.90
35804;DHT22;21924;51.934;7.414;2023-01-01T15:08:20;11.70;99.90
35804;DHT22;21924;51.934;7.414;2023-01-01T15:11:04;11.80;99.90
35804;DHT22;21924;51.934;7.414;2023-01-01T15:16:40;11.70;99.90
35804;DHT22;21924;51.934;7.414;2023-01-01T15:19:24;11.70;99.90
35804;DHT22;21924;51.934;7.414;2023-01-01T15:22:26;11.70;99.90
35804;DHT22;21924;51.934;7.414;2023-01-01T15:25:13;11.60;99.90
35804;DHT22;21924;51.934;7.414;2023-01-01T15:27:59;11.60;99.90
35804;DHT22;21924;51.934;7.414;2023-01-01T15:30:43;11.60;99.90
35804;DHT22;21924;51.934;7.414;2023-01-01T15:33:27;11.50;99.90
35804;DHT22;21924;51.934;7.414;2023-01-01T15:36:11;11.60;99.90
35804;DHT22;21924;51.934;7.414;2023-01-01T15:38:56;11.60;99.90
35804;DHT22;21924;51.934;7.414;2023-01-01T15:41:45;11.60;99.90
35804;DHT22;21924;51.934;7.414;2023-01-01T15:44:32;11.60;99.90
35804;DHT22;21924;51.934;7.414;2023-01-01T15:47:19;11.50;99.90
35804;DHT22;21924;51.934;7.414;2023-01-01T15:53:28;11.40;99.90
35804;DHT22;21924;51.934;7.414;2023-01-01T15:56:15;11.40;99.90
35804;DHT22;21924;51.934;7.414;2023-01-01T15:59:05;11.30;99.90
35804;DHT22;21924;51.934;7.414;2023-01-01T16:02:16;11.30;99.90
35804;DHT22;21924;51.934;7.414;2023-01-01T16:05:13;11.30;99.90
35804;DHT22;21924;51.934;7.414;2023-01-01T16:08:03;11.30;99.90
35804;DHT22;21924;51.934;7.414;2023-01-01T16:10:49;11.30;99.90
35804;DHT22;21924;51.934;7.414;2023-01-01T16:13:33;11.40;99.90
35804;DHT22;21924;51.934;7.414;2023-01-01T16:16:28;11.40;99.90
35804;DHT22;21924;51.934;7.414;2023-01-01T16:19:17;11.40;99.90
35804;DHT22;21924;51.934;7.414;2023-01-01T16:22:01;11.40;99.90
35804;DHT22;21924;51.934;7.414;2023-01-01T16:24:46;11.40;99.90
35804;DHT22;21924;51.934;7.414;2023-01-01T16:27:30;11.40;99.90
35804;DHT22;21924;51.934;7.414;2023-01-01T16:30:14;11.50;99.90
35804;DHT22;21924;51.934;7.414;2023-01-01T16:32:59;11.50;99.90
35804;DHT22;21924;51.934;7.414;2023-01-01T16:35:44;11.60;99.90
35804;DHT22;21924;51.934;7.414;2023-01-01T16:38:28;11.50;99.90
35804;DHT22;21924;51.934;7.414;2023-01-01T16:41:13;11.60;99.90
35804;DHT22;21924;51.934;7.414;2023-01-01T16:43:58;11.50;99.90
35804;DHT22;21924;51.934;7.414;2023-01-01T16:46:42;11.50;99.90
35804;DHT22;21924;51.934;7.414;2023-01-01T16:49:26;11.60;99.90
35804;DHT22;21924;51.934;7.414;2023-01-01T16:52:11;11.60;99.90
35804;DHT22;21924;51.934;7.414;2023-01-01T16:54:55;11.70;99.90
35804;DHT22;21924;51.934;7.414;2023-01-01T16:57:39;11.60;99.90
35804;DHT22;21924;51.934;7.414;2023-01-01T17:00:23;11.60;99.90
35804;DHT22;21924;51.934;7.414;2023-01-01T17:03:08;11.70;99.90
35804;DHT22;21924;51.934;7.414;2023-01-01T17:05:52;11.70;99.90
35804;DHT22;21924;51.934;7.414;2023-01-01T17:08:36;11.70;99.90
35804;DHT22;21924;51.934;7.414;2023-01-01T17:11:21;11.60;99.90
35804;DHT22;21924;51.934;7.414;2023-01-01T17:14:08;11.60;99.90
35804;DHT22;21924;51.934;7.414;2023-01-01T17:16:53;11.60;99.90
35804;DHT22;21924;51.934;7.414;2023-01-01T17:19:39;11.50;99.90
35804;DHT22;21924;51.934;7.414;2023-01-01T17:22:23;11.50;99.90
35804;DHT22;21924;51.934;7.414;2023-01-01T17:25:08;11.40;99.90
35804;DHT22;21924;51.934;7.414;2023-01-01T17:27:52;11.30;99.90
35804;DHT22;21924;51.934;7.414;2023-01-01T17:30:36;11.30;99.90
35804;DHT22;21924;51.934;7.414;2023-01-01T17:33:21;11.20;99.90
35804;DHT22;21924;51.934;7.414;2023-01-01T17:36:06;11.20;99.90
35804;DHT22;21924;51.934;7.414;2023-01-01T17:38:50;11.10;99.90
35804;DHT22;21924;51.934;7.414;2023-01-01T17:41:35;11.10;99.90
35804;DHT22;21924;51.934;7.414;2023-01-01T17:44:21;11.10;99.90
35804;DHT22;21924;51.934;7.414;2023-01-01T17:47:05;11.00;99.90
35804;DHT22;21924;51.934;7.414;2023-01-01T17:49:49;11.00;99.90
35804;DHT22;21924;51.934;7.414;2023-01-01T17:52:34;11.00;99.90
35804;DHT22;21924;51.934;7.414;2023-01-01T17:55:18;11.00;99.90
35804;DHT22;21924;51.934;7.414;2023-01-01T17:58:02;11.00;99.90
35804;DHT22;21924;51.934;7.414;2023-01-01T18:00:47;11.00;99.90
35804;DHT22;21924;51.934;7.414;2023-01-01T18:03:31;11.00;99.90
35804;DHT22;21924;51.934;7.414;2023-01-01T18:06:16;10.90;99.90
35804;DHT22;21924;51.934;7.414;2023-01-01T18:09:02;11.00;99.90
35804;DHT22;21924;51.934;7.414;2023-01-01T18:11:47;11.00;99.90
35804;DHT22;21924;51.934;7.414;2023-01-01T18:14:31;11.00;99.90
35804;DHT22;21924;51.934;7.414;2023-01-01T18:17:16;11.00;99.90
35804;DHT22;21924;51.934;7.414;2023-01-01T18:20:00;11.00;99.90
35804;DHT22;21924;51.934;7.414;2023-01-01T18:22:44;10.90;99.90
35804;DHT22;21924;51.934;7.414;2023-01-01T18:25:29;10.90;99.90
35804;DHT22;21924;51.934;7.414;2023-01-01T18:28:13;10.90;99.90
35804;DHT22;21924;51.934;7.414;2023-01-01T18:31:13;10.90;99.90
35804;DHT22;21924;51.934;7.414;2023-01-01T18:33:59;10.80;99.90
35804;DHT22;21924;51.934;7.414;2023-01-01T18:36:44;10.80;99.90
35804;DHT22;21924;51.934;7.414;2023-01-01T18:39:31;10.80;99.90
35804;DHT22;21924;51.934;7.414;2023-01-01T18:42:41;10.80;99.90
35804;DHT22;21924;51.934;7.414;2023-01-01T18:45:27;10.80;99.90
35804;DHT22;21924;51.934;7.414;2023-01-01T18:48:12;10.70;99.90
35804;DHT22;21924;51.934;7.414;2023-01-01T18:50:58;10.70;99.90
35804;DHT22;21924;51.934;7.414;2023-01-01T18:53:42;10.70;99.90
35804;DHT22;21924;51.934;7.414;2023-01-01T18:56:27;10.80;99.90
35804;DHT22;21924;51.934;7.414;2023-01-01T18:59:21;10.80;99.90
35804;DHT22;21924;51.934;7.414;2023-01-01T19:08:17;10.70;99.90
35804;DHT22;21924;51.934;7.414;2023-01-01T19:11:02;10.70;99.90
35804;DHT22;21924;51.934;7.414;2023-01-01T19:13:52;10.70;99.90